sensor_id;sensor_type;location;lat;lon;timestamp;pressure;altitude;pressure_sealevel;temperature;humidity
7662;BME280;30314;48.184;11.510;2023-06-22T00:02:26;95999.31;;;21.11;100.00
7662;BME280;30314;48.184;11.510;2023-06-22T00:04:53;96009.06;;;21.19;100.00
7662;BME280;30314;48.184;11.510;2023-06-22T00:07:19;96000.69;;;21.21;100.00
7662;BME280;30314;48.184;11.510;2023-06-22T00:09:46;95996.88;;;21.22;100.00
7662;BME280;30314;48.184;11.510;2023-06-22T00:12:12;95997.56;;;21.19;100.00
7662;BME280;30314;48.184;11.510;2023-06-22T00:14:39;95989.00;;;21.13;100.00
7662;BME280;30314;48.184;11.510;2023-06-22T00:17:06;95992.31;;;21.06;100.00
7662;BME280;30314;48.184;11.510;2023-06-22T00:19:33;95992.25;;;21.03;100.00
7662;BME280;30314;48.184;11.510;2023-06-22T00:22:02;95994.16;;;21.02;100.00
7662;BME280;30314;48.184;11.510;2023-06-22T00:24:29;95991.03;;;21.00;100.00
7662;BME280;30314;48.184;11.510;2023-06-22T00:26:56;95978.69;;;20.95;100.00
7662;BME280;30314;48.184;11.510;2023-06-22T00:29:22;95989.66;;;20.90;100.00
7662;BME280;30314;48.184;11.510;2023-06-22T00:31:51;95974.19;;;20.83;100.00
7662;BME280;30314;48.184;11.510;2023-06-22T00:34:18;95988.63;;;20.95;100.00
7662;BME280;30314;48.184;11.510;2023-06-22T00:36:44;95994.84;;;20.99;100.00
7662;BME280;30314;48.184;11.510;2023-06-22T00:39:11;95988.28;;;20.96;100.00
7662;BME280;30314;48.184;11.510;2023-06-22T00:41:38;95998.41;;;21.03;100.00
7662;BME280;30314;48.184;11.510;2023-06-22T00:44:04;95994.06;;;20.98;100.00
7662;BME280;30314;48.184;11.510;2023-06-22T00:46:33;95995.00;;;21.06;100.00
7662;BME280;30314;48.184;11.510;2023-06-22T00:49:00;95988.78;;;21.02;100.00
7662;BME280;30314;48.184;11.510;2023-06-22T00:51:27;95992.25;;;21.03;100.00
7662;BME280;30314;48.184;11.510;2023-06-22T00:53:54;95989.22;;;21.04;100.00
7662;BME280;30314;48.184;11.510;2023-06-22T00:56:22;95990.34;;;21.03;100.00
7662;BME280;30314;48.184;11.510;2023-06-22T00:58:51;95990.25;;;21.00;99.73
7662;BME280;30314;48.184;11.510;2023-06-22T01:01:20;95982.13;;;20.96;99.50
7662;BME280;30314;48.184;11.510;2023-06-22T01:03:50;95979.53;;;21.00;99.96
7662;BME280;30314;48.184;11.510;2023-06-22T01:06:26;95985.91;;;21.11;97.86
7662;BME280;30314;48.184;11.510;2023-06-22T01:09:02;95981.91;;;21.05;98.71
7662;BME280;30314;48.184;11.510;2023-06-22T01:11:38;95965.94;;;20.92;99.94
7662;BME280;30314;48.184;11.510;2023-06-22T01:16:44;95964.16;;;20.80;100.00
7662;BME280;30314;48.184;11.510;2023-06-22T01:21:55;95947.19;;;20.76;100.00
7662;BME280;30314;48.184;11.510;2023-06-22T01:24:28;95950.50;;;20.69;100.00
7662;BME280;30314;48.184;11.510;2023-06-22T01:27:04;95951.97;;;20.67;100.00
7662;BME280;30314;48.184;11.510;2023-06-22T01:29:37;95946.19;;;20.65;100.00
7662;BME280;30314;48.184;11.510;2023-06-22T01:32:05;95945.31;;;20.61;100.00
7662;BME280;30314;48.184;11.510;2023-06-22T01:34:36;95941.50;;;20.62;100.00
7662;BME280;30314;48.184;11.510;2023-06-22T01:37:05;95942.88;;;20.55;100.00
7662;BME280;30314;48.184;11.510;2023-06-22T01:39:32;95945.13;;;20.53;100.00
7662;BME280;30314;48.184;11.510;2023-06-22T01:41:59;95943.47;;;20.49;100.00
7662;BME280;30314;48.184;11.510;2023-06-22T01:44:26;95940.47;;;20.50;100.00
7662;BME280;30314;48.184;11.510;2023-06-22T01:46:53;95941.75;;;20.40;100.00
7662;BME280;30314;48.184;11.510;2023-06-22T01:49:20;95943.91;;;20.51;100.00
7662;BME280;30314;48.184;11.510;2023-06-22T01:51:47;95948.31;;;20.43;100.00
7662;BME280;30314;48.184;11.510;2023-06-22T01:54:13;95944.59;;;20.48;100.00
7662;BME280;30314;48.184;11.510;2023-06-22T01:56:40;95952.84;;;20.39;100.00
7662;BME280;30314;48.184;11.510;2023-06-22T02:02:03;95952.75;;;20.19;100.00
7662;BME280;30314;48.184;11.510;2023-06-22T02:04:41;95952.47;;;20.08;100.00
7662;BME280;30314;48.184;11.510;2023-06-22T02:07:14;95953.41;;;20.00;100.00
7662;BME280;30314;48.184;11.510;2023-06-22T02:09:45;95950.81;;;19.88;100.00
7662;BME280;30314;48.184;11.510;2023-06-22T02:12:13;95953.00;;;19.82;100.00
7662;BME280;30314;48.184;11.510;2023-06-22T02:14:45;95947.69;;;19.69;100.00
7662;BME280;30314;48.184;11.510;2023-06-22T02:17:13;95954.59;;;19.70;100.00
7662;BME280;30314;48.184;11.510;2023-06-22T02:19:43;95951.00;;;19.66;100.00
7662;BME280;30314;48.184;11.510;2023-06-22T02:22:10;95951.78;;;19.67;100.00
7662;BME280;30314;48.184;11.510;2023-06-22T02:24:36;95958.44;;;19.57;100.00
7662;BME280;30314;48.184;11.510;2023-06-22T02:27:03;95957.34;;;19.46;100.00
7662;BME280;30314;48.184;11.510;2023-06-22T02:29:31;95953.34;;;19.39;100.00
7662;BME280;30314;48.184;11.510;2023-06-22T02:31:58;95954.97;;;19.28;100.00
7662;BME280;30314;48.184;11.510;2023-06-22T02:34:25;95956.97;;;19.31;100.00
7662;BME280;30314;48.184;11.510;2023-06-22T02:36:52;95968.56;;;19.23;100.00
7662;BME280;30314;48.184;11.510;2023-06-22T02:39:22;95977.28;;;19.20;100.00
7662;BME280;30314;48.184;11.510;2023-06-22T02:41:53;95980.72;;;19.20;100.00
7662;BME280;30314;48.184;11.510;2023-06-22T02:44:21;95984.97;;;19.21;100.00
7662;BME280;30314;48.184;11.510;2023-06-22T02:46:48;95981.41;;;19.17;100.00
7662;BME280;30314;48.184;11.510;2023-06-22T02:49:16;95976.41;;;19.15;100.00
7662;BME280;30314;48.184;11.510;2023-06-22T02:51:45;95984.66;;;19.10;100.00
7662;BME280;30314;48.184;11.510;2023-06-22T02:54:15;95977.31;;;19.07;100.00
7662;BME280;30314;48.184;11.510;2023-06-22T02:56:44;95979.00;;;18.99;100.00
7662;BME280;30314;48.184;11.510;2023-06-22T02:59:11;95973.22;;;18.97;100.00
7662;BME280;30314;48.184;11.510;2023-06-22T03:01:38;95970.19;;;18.86;100.00
7662;BME280;30314;48.184;11.510;2023-06-22T03:04:23;95966.41;;;18.87;100.00
7662;BME280;30314;48.184;11.510;2023-06-22T03:06:50;95962.53;;;18.85;100.00
7662;BME280;30314;48.184;11.510;2023-06-22T03:09:18;95969.31;;;18.82;100.00
7662;BME280;30314;48.184;11.510;2023-06-22T03:11:44;95958.63;;;18.82;100.00
7662;BME280;30314;48.184;11.510;2023-06-22T03:14:11;95951.72;;;18.81;100.00
7662;BME280;30314;48.184;11.510;2023-06-22T03:16:38;95960.84;;;18.93;100.00
7662;BME280;30314;48.184;11.510;2023-06-22T03:19:04;95955.06;;;18.91;100.00
7662;BME280;30314;48.184;11.510;2023-06-22T03:21:31;95957.94;;;18.85;100.00
7662;BME280;30314;48.184;11.510;2023-06-22T03:23:59;95952.25;;;18.87;100.00
7662;BME280;30314;48.184;11.510;2023-06-22T03:26:26;95952.13;;;18.96;100.00
7662;BME280;30314;48.184;11.510;2023-06-22T03:28:53;95953.69;;;18.97;100.00
7662;BME280;30314;48.184;11.510;2023-06-22T03:31:20;95963.41;;;18.89;100.00
7662;BME280;30314;48.184;11.510;2023-06-22T03:33:49;95954.38;;;18.81;100.00
7662;BME280;30314;48.184;11.510;2023-06-22T03:36:17;95957.94;;;18.85;100.00
7662;BME280;30314;48.184;11.510;2023-06-22T03:38:48;95961.28;;;18.70;100.00
7662;BME280;30314;48.184;11.510;2023-06-22T03:41:15;95967.31;;;18.67;100.00
7662;BME280;30314;48.184;11.510;2023-06-22T03:43:43;95959.84;;;18.60;100.00
7662;BME280;30314;48.184;11.510;2023-06-22T03:46:09;95968.75;;;18.64;100.00
7662;BME280;30314;48.184;11.510;2023-06-22T03:48:36;95975.88;;;18.60;100.00
7662;BME280;30314;48.184;11.510;2023-06-22T03:51:03;95969.66;;;18.56;100.00
7662;BME280;30314;48.184;11.510;2023-06-22T03:53:29;95970.41;;;18.56;100.00
7662;BME280;30314;48.184;11.510;2023-06-22T03:55:56;95967.53;;;18.49;100.00
7662;BME280;30314;48.184;11.510;2023-06-22T03:58:23;95973.09;;;18.56;100.00
7662;BME280;30314;48.184;11.510;2023-06-22T04:00:51;95975.09;;;18.59;100.00
7662;BME280;30314;48.184;11.510;2023-06-22T04:03:19;95976.31;;;18.62;100.00
7662;BME280;30314;48.184;11.510;2023-06-22T04:05:46;95968.41;;;18.66;100.00
7662;BME280;30314;48.184;11.510;2023-06-22T04:08:13;95978.59;;;18.72;100.00
7662;BME280;30314;48.184;11.510;2023-06-22T04:10:40;95982.03;;;18.73;100.00
7662;BME280;30314;48.184;11.510;2023-06-22T04:13:07;95980.25;;;18.77;100.00
7662;BME280;30314;48.184;11.510;2023-06-22T04:15:34;95987.03;;;18.87;100.00
7662;BME280;30314;48.184;11.510;2023-06-22T04:18:00;95981.81;;;18.91;100.00
7662;BME280;30314;48.184;11.510;2023-06-22T04:20:27;95979.91;;;18.91;100.00
7662;BME280;30314;48.184;11.510;2023-06-22T04:22:55;95976.09;;;18.92;100.00
7662;BME280;30314;48.184;11.510;2023-06-22T04:25:22;95972.22;;;19.02;100.00
7662;BME280;30314;48.184;11.510;2023-06-22T04:27:49;95972.72;;;19.08;100.00
7662;BME280;30314;48.184;11.510;2023-06-22T04:30:16;95965.72;;;19.15;100.00
7662;BME280;30314;48.184;11.510;2023-06-22T04:32:43;95974.41;;;19.12;100.00
7662;BME280;30314;48.184;11.510;2023-06-22T04:35:11;95968.81;;;19.18;100.00
7662;BME280;30314;48.184;11.510;2023-06-22T04:37:38;95965.78;;;19.19;100.00
7662;BME280;30314;48.184;11.510;2023-06-22T04:40:06;95966.81;;;19.14;100.00
7662;BME280;30314;48.184;11.510;2023-06-22T04:42:34;95968.13;;;19.21;100.00
7662;BME280;30314;48.184;11.510;2023-06-22T04:45:02;95951.63;;;19.19;100.00
7662;BME280;30314;48.184;11.510;2023-06-22T04:47:29;95958.25;;;19.37;100.00
7662;BME280;30314;48.184;11.510;2023-06-22T04:49:55;95945.66;;;19.38;100.00
7662;BME280;30314;48.184;11.510;2023-06-22T04:52:22;95956.47;;;19.41;100.00
7662;BME280;30314;48.184;11.510;2023-06-22T04:54:50;95956.91;;;19.43;100.00
7662;BME280;30314;48.184;11.510;2023-06-22T04:57:22;95950.88;;;19.47;100.00
7662;BME280;30314;48.184;11.510;2023-06-22T05:00:02;95953.84;;;19.57;100.00
7662;BME280;30314;48.184;11.510;2023-06-22T05:02:39;95955.16;;;19.64;100.00
7662;BME280;30314;48.184;11.510;2023-06-22T05:05:07;95955.38;;;19.71;100.00
7662;BME280;30314;48.184;11.510;2023-06-22T05:07:34;95957.66;;;19.85;100.00
7662;BME280;30314;48.184;11.510;2023-06-22T05:10:02;95948.31;;;19.95;100.00
7662;BME280;30314;48.184;11.510;2023-06-22T05:12:29;95949.53;;;19.97;100.00
7662;BME280;30314;48.184;11.510;2023-06-22T05:14:57;95951.53;;;20.00;100.00
7662;BME280;30314;48.184;11.510;2023-06-22T05:17:24;95950.13;;;20.07;100.00
7662;BME280;30314;48.184;11.510;2023-06-22T05:19:51;95951.56;;;20.17;100.00
7662;BME280;30314;48.184;11.510;2023-06-22T05:22:18;95950.06;;;20.19;100.00
7662;BME280;30314;48.184;11.510;2023-06-22T05:24:44;95944.38;;;20.37;100.00
7662;BME280;30314;48.184;11.510;2023-06-22T05:27:11;95949.31;;;20.35;100.00
7662;BME280;30314;48.184;11.510;2023-06-22T05:29:37;95946.69;;;20.38;100.00
7662;BME280;30314;48.184;11.510;2023-06-22T05:32:04;95953.16;;;20.53;100.00
7662;BME280;30314;48.184;11.510;2023-06-22T05:34:31;95948.06;;;20.64;100.00
7662;BME280;30314;48.184;11.510;2023-06-22T05:36:58;95936.91;;;20.62;100.00
7662;BME280;30314;48.184;11.510;2023-06-22T05:39:27;95946.59;;;20.67;100.00
7662;BME280;30314;48.184;11.510;2023-06-22T05:41:54;95944.94;;;20.78;100.00
7662;BME280;30314;48.184;11.510;2023-06-22T05:44:20;95940.78;;;20.81;100.00
7662;BME280;30314;48.184;11.510;2023-06-22T05:46:47;95934.78;;;20.88;100.00
7662;BME280;30314;48.184;11.510;2023-06-22T05:49:15;95941.00;;;20.92;100.00
7662;BME280;30314;48.184;11.510;2023-06-22T05:51:42;95935.00;;;20.98;100.00
7662;BME280;30314;48.184;11.510;2023-06-22T05:54:09;95929.34;;;21.04;100.00
7662;BME280;30314;48.184;11.510;2023-06-22T05:56:36;95933.69;;;21.08;100.00
7662;BME280;30314;48.184;11.510;2023-06-22T05:59:04;95939.22;;;21.16;100.00
7662;BME280;30314;48.184;11.510;2023-06-22T06:01:30;95931.16;;;21.16;100.00
7662;BME280;30314;48.184;11.510;2023-06-22T06:04:02;95932.53;;;21.09;100.00
7662;BME280;30314;48.184;11.510;2023-06-22T06:06:30;95963.88;;;21.41;100.00
7662;BME280;30314;48.184;11.510;2023-06-22T06:08:57;95965.22;;;21.51;100.00
7662;BME280;30314;48.184;11.510;2023-06-22T06:11:25;95950.84;;;21.43;100.00
7662;BME280;30314;48.184;11.510;2023-06-22T06:13:52;95945.84;;;21.42;100.00
7662;BME280;30314;48.184;11.510;2023-06-22T06:16:19;95934.19;;;21.53;100.00
7662;BME280;30314;48.184;11.510;2023-06-22T06:18:46;95945.44;;;21.59;100.00
7662;BME280;30314;48.184;11.510;2023-06-22T06:21:12;95944.72;;;21.62;100.00
7662;BME280;30314;48.184;11.510;2023-06-22T06:23:39;95943.47;;;21.56;100.00
7662;BME280;30314;48.184;11.510;2023-06-22T06:26:05;95935.91;;;21.62;100.00
7662;BME280;30314;48.184;11.510;2023-06-22T06:28:34;95937.09;;;21.64;100.00
7662;BME280;30314;48.184;11.510;2023-06-22T06:31:01;95932.84;;;21.63;100.00
7662;BME280;30314;48.184;11.510;2023-06-22T06:33:28;95911.34;;;21.63;100.00
7662;BME280;30314;48.184;11.510;2023-06-22T06:35:54;95917.34;;;21.76;100.00
7662;BME280;30314;48.184;11.510;2023-06-22T06:38:22;95920.53;;;21.82;100.00
7662;BME280;30314;48.184;11.510;2023-06-22T06:40:49;95922.06;;;21.83;100.00
7662;BME280;30314;48.184;11.510;2023-06-22T06:43:15;95926.00;;;21.89;100.00
7662;BME280;30314;48.184;11.510;2023-06-22T06:45:42;95921.91;;;21.95;100.00
7662;BME280;30314;48.184;11.510;2023-06-22T06:48:08;95920.03;;;22.00;100.00
7662;BME280;30314;48.184;11.510;2023-06-22T06:50:36;95927.50;;;22.10;100.00
7662;BME280;30314;48.184;11.510;2023-06-22T06:53:02;95922.56;;;22.12;100.00
7662;BME280;30314;48.184;11.510;2023-06-22T06:55:29;95921.22;;;22.25;100.00
7662;BME280;30314;48.184;11.510;2023-06-22T06:57:56;95921.94;;;22.22;100.00
7662;BME280;30314;48.184;11.510;2023-06-22T07:00:23;95921.53;;;22.20;100.00
7662;BME280;30314;48.184;11.510;2023-06-22T07:02:50;95923.59;;;22.31;100.00
7662;BME280;30314;48.184;11.510;2023-06-22T07:05:16;95925.59;;;22.34;100.00
7662;BME280;30314;48.184;11.510;2023-06-22T07:07:43;95929.19;;;22.42;100.00
7662;BME280;30314;48.184;11.510;2023-06-22T07:10:10;95930.16;;;22.57;99.70
7662;BME280;30314;48.184;11.510;2023-06-22T07:12:37;95922.47;;;22.55;98.99
7662;BME280;30314;48.184;11.510;2023-06-22T07:15:05;95919.81;;;22.59;99.58
7662;BME280;30314;48.184;11.510;2023-06-22T07:17:32;95924.09;;;22.60;99.18
7662;BME280;30314;48.184;11.510;2023-06-22T07:19:59;95920.84;;;22.77;98.36
7662;BME280;30314;48.184;11.510;2023-06-22T07:22:25;95930.56;;;22.86;99.41
7662;BME280;30314;48.184;11.510;2023-06-22T07:24:52;95919.50;;;22.91;99.27
7662;BME280;30314;48.184;11.510;2023-06-22T07:27:18;95913.38;;;22.94;98.98
7662;BME280;30314;48.184;11.510;2023-06-22T07:29:46;95906.13;;;22.98;96.58
7662;BME280;30314;48.184;11.510;2023-06-22T07:32:13;95904.03;;;23.15;95.03
7662;BME280;30314;48.184;11.510;2023-06-22T07:34:39;95897.31;;;23.32;95.67
7662;BME280;30314;48.184;11.510;2023-06-22T07:37:06;95898.19;;;23.43;94.68
7662;BME280;30314;48.184;11.510;2023-06-22T07:39:32;95900.19;;;23.46;95.81
7662;BME280;30314;48.184;11.510;2023-06-22T07:41:59;95897.91;;;23.52;95.47
7662;BME280;30314;48.184;11.510;2023-06-22T07:44:25;95884.56;;;23.63;88.69
7662;BME280;30314;48.184;11.510;2023-06-22T07:46:52;95885.66;;;23.58;91.04
7662;BME280;30314;48.184;11.510;2023-06-22T07:49:19;95887.66;;;23.65;94.09
7662;BME280;30314;48.184;11.510;2023-06-22T07:51:45;95883.09;;;23.73;92.33
7662;BME280;30314;48.184;11.510;2023-06-22T07:54:12;95880.84;;;23.78;92.56
7662;BME280;30314;48.184;11.510;2023-06-22T07:56:38;95875.47;;;23.82;93.09
7662;BME280;30314;48.184;11.510;2023-06-22T07:59:05;95877.91;;;23.95;93.54
7662;BME280;30314;48.184;11.510;2023-06-22T08:01:31;95880.34;;;24.07;91.64
7662;BME280;30314;48.184;11.510;2023-06-22T08:03:58;95882.75;;;24.19;89.88
7662;BME280;30314;48.184;11.510;2023-06-22T08:06:25;95888.19;;;24.27;88.34
7662;BME280;30314;48.184;11.510;2023-06-22T08:08:51;95888.28;;;24.41;88.63
7662;BME280;30314;48.184;11.510;2023-06-22T08:11:20;95885.28;;;24.54;87.24
7662;BME280;30314;48.184;11.510;2023-06-22T08:13:48;95881.44;;;24.55;86.70
7662;BME280;30314;48.184;11.510;2023-06-22T08:16:15;95885.34;;;24.61;83.10
7662;BME280;30314;48.184;11.510;2023-06-22T08:18:42;95883.72;;;24.53;84.45
7662;BME280;30314;48.184;11.510;2023-06-22T08:21:08;95886.81;;;24.55;86.42
7662;BME280;30314;48.184;11.510;2023-06-22T08:23:35;95880.72;;;24.65;87.06
7662;BME280;30314;48.184;11.510;2023-06-22T08:26:01;95877.78;;;24.92;85.04
7662;BME280;30314;48.184;11.510;2023-06-22T08:28:28;95871.00;;;25.34;83.83
7662;BME280;30314;48.184;11.510;2023-06-22T08:30:55;95869.19;;;25.79;82.71
7662;BME280;30314;48.184;11.510;2023-06-22T08:33:22;95874.22;;;25.98;76.34
7662;BME280;30314;48.184;11.510;2023-06-22T08:35:55;95864.94;;;25.92;75.31
7662;BME280;30314;48.184;11.510;2023-06-22T08:38:22;95873.03;;;25.78;78.67
7662;BME280;30314;48.184;11.510;2023-06-22T08:40:48;95876.13;;;25.69;78.70
7662;BME280;30314;48.184;11.510;2023-06-22T08:43:15;95876.09;;;25.61;79.04
7662;BME280;30314;48.184;11.510;2023-06-22T08:45:42;95878.41;;;25.56;80.24
7662;BME280;30314;48.184;11.510;2023-06-22T08:48:10;95845.53;;;25.32;79.59
7662;BME280;30314;48.184;11.510;2023-06-22T08:50:36;95876.09;;;25.54;79.41
7662;BME280;30314;48.184;11.510;2023-06-22T08:53:03;95875.75;;;25.67;75.04
7662;BME280;30314;48.184;11.510;2023-06-22T08:55:29;95867.22;;;25.57;77.60
7662;BME280;30314;48.184;11.510;2023-06-22T08:57:57;95869.94;;;25.57;78.20
7662;BME280;30314;48.184;11.510;2023-06-22T09:00:23;95869.53;;;25.63;78.22
7662;BME280;30314;48.184;11.510;2023-06-22T09:02:50;95863.34;;;25.58;79.19
7662;BME280;30314;48.184;11.510;2023-06-22T09:05:16;95870.31;;;25.59;79.36
7662;BME280;30314;48.184;11.510;2023-06-22T09:07:43;95854.09;;;25.67;78.11
7662;BME280;30314;48.184;11.510;2023-06-22T09:10:10;95854.50;;;25.83;77.19
7662;BME280;30314;48.184;11.510;2023-06-22T09:12:38;95851.78;;;25.90;76.36
7662;BME280;30314;48.184;11.510;2023-06-22T09:15:05;95857.97;;;25.95;77.11
7662;BME280;30314;48.184;11.510;2023-06-22T09:17:38;95855.25;;;26.02;74.82
7662;BME280;30314;48.184;11.510;2023-06-22T09:20:05;95865.72;;;26.07;73.06
7662;BME280;30314;48.184;11.510;2023-06-22T09:22:34;95860.69;;;26.13;72.04
7662;BME280;30314;48.184;11.510;2023-06-22T09:25:00;95861.06;;;26.11;72.17
7662;BME280;30314;48.184;11.510;2023-06-22T09:27:27;95860.66;;;26.16;72.78
7662;BME280;30314;48.184;11.510;2023-06-22T09:29:54;95859.16;;;26.23;70.98
7662;BME280;30314;48.184;11.510;2023-06-22T09:32:20;95851.78;;;26.38;69.21
7662;BME280;30314;48.184;11.510;2023-06-22T09:34:47;95849.84;;;26.42;70.57
7662;BME280;30314;48.184;11.510;2023-06-22T09:37:13;95849.06;;;26.52;70.38
7662;BME280;30314;48.184;11.510;2023-06-22T09:39:40;95847.09;;;26.60;70.67
7662;BME280;30314;48.184;11.510;2023-06-22T09:42:07;95833.94;;;26.62;68.81
7662;BME280;30314;48.184;11.510;2023-06-22T09:44:33;95849.75;;;26.74;69.75
7662;BME280;30314;48.184;11.510;2023-06-22T09:47:00;95843.97;;;26.72;69.06
7662;BME280;30314;48.184;11.510;2023-06-22T09:49:27;95842.41;;;26.75;67.88
7662;BME280;30314;48.184;11.510;2023-06-22T09:52:13;95843.13;;;26.83;69.26
7662;BME280;30314;48.184;11.510;2023-06-22T09:54:39;95840.81;;;26.96;67.15
7662;BME280;30314;48.184;11.510;2023-06-22T09:57:06;95835.75;;;27.05;65.50
7662;BME280;30314;48.184;11.510;2023-06-22T09:59:33;95829.53;;;27.08;67.04
7662;BME280;30314;48.184;11.510;2023-06-22T10:01:59;95825.19;;;27.25;65.97
7662;BME280;30314;48.184;11.510;2023-06-22T10:04:26;95816.63;;;27.34;63.61
7662;BME280;30314;48.184;11.510;2023-06-22T10:06:53;95820.41;;;27.44;63.65
7662;BME280;30314;48.184;11.510;2023-06-22T10:09:20;95816.88;;;27.54;60.38
7662;BME280;30314;48.184;11.510;2023-06-22T10:11:47;95811.03;;;27.56;62.68
7662;BME280;30314;48.184;11.510;2023-06-22T10:14:14;95805.16;;;27.68;62.44
7662;BME280;30314;48.184;11.510;2023-06-22T10:16:40;95813.22;;;27.79;59.53
7662;BME280;30314;48.184;11.510;2023-06-22T10:19:08;95815.41;;;27.95;60.55
7662;BME280;30314;48.184;11.510;2023-06-22T10:21:34;95809.13;;;28.02;60.74
7662;BME280;30314;48.184;11.510;2023-06-22T10:24:01;95815.59;;;28.16;56.23
7662;BME280;30314;48.184;11.510;2023-06-22T10:26:37;95809.75;;;28.21;56.99
7662;BME280;30314;48.184;11.510;2023-06-22T10:29:03;95808.59;;;28.25;59.78
7662;BME280;30314;48.184;11.510;2023-06-22T10:31:42;95805.25;;;28.45;60.17
7662;BME280;30314;48.184;11.510;2023-06-22T10:34:08;95813.28;;;28.56;59.65
7662;BME280;30314;48.184;11.510;2023-06-22T10:36:35;95810.09;;;28.65;56.89
7662;BME280;30314;48.184;11.510;2023-06-22T10:39:02;95803.31;;;28.80;56.96
7662;BME280;30314;48.184;11.510;2023-06-22T10:41:29;95794.97;;;28.98;54.52
7662;BME280;30314;48.184;11.510;2023-06-22T10:43:57;95798.72;;;29.08;54.24
7662;BME280;30314;48.184;11.510;2023-06-22T10:46:24;95793.91;;;29.20;56.69
7662;BME280;30314;48.184;11.510;2023-06-22T10:48:52;95783.53;;;29.38;54.12
7662;BME280;30314;48.184;11.510;2023-06-22T10:51:21;95784.97;;;29.47;54.30
7662;BME280;30314;48.184;11.510;2023-06-22T10:53:48;95784.78;;;29.61;54.52
7662;BME280;30314;48.184;11.510;2023-06-22T10:56:14;95782.81;;;29.86;54.02
7662;BME280;30314;48.184;11.510;2023-06-22T10:58:41;95769.78;;;29.97;53.76
7662;BME280;30314;48.184;11.510;2023-06-22T11:01:08;95771.09;;;29.89;53.50
7662;BME280;30314;48.184;11.510;2023-06-22T11:03:45;95772.31;;;29.64;53.03
7662;BME280;30314;48.184;11.510;2023-06-22T11:06:13;95757.13;;;29.39;53.30
7662;BME280;30314;48.184;11.510;2023-06-22T11:08:44;95780.81;;;29.38;54.59
7662;BME280;30314;48.184;11.510;2023-06-22T11:11:30;95777.06;;;29.29;54.65
7662;BME280;30314;48.184;11.510;2023-06-22T11:13:56;95776.28;;;29.28;54.55
7662;BME280;30314;48.184;11.510;2023-06-22T11:16:23;95775.41;;;29.35;54.73
7662;BME280;30314;48.184;11.510;2023-06-22T11:18:50;95771.41;;;29.43;54.92
7662;BME280;30314;48.184;11.510;2023-06-22T11:21:16;95769.38;;;29.51;53.84
7662;BME280;30314;48.184;11.510;2023-06-22T11:23:43;95773.84;;;29.65;53.41
7662;BME280;30314;48.184;11.510;2023-06-22T11:26:09;95765.97;;;29.71;54.04
7662;BME280;30314;48.184;11.510;2023-06-22T11:28:36;95761.38;;;29.88;53.70
7662;BME280;30314;48.184;11.510;2023-06-22T11:31:03;95766.13;;;30.07;52.69
7662;BME280;30314;48.184;11.510;2023-06-22T11:33:46;95764.00;;;30.39;51.74
7662;BME280;30314;48.184;11.510;2023-06-22T11:36:14;95760.44;;;30.62;50.14
7662;BME280;30314;48.184;11.510;2023-06-22T11:38:42;95745.03;;;30.72;50.46
7662;BME280;30314;48.184;11.510;2023-06-22T11:41:09;95742.66;;;30.94;48.92
7662;BME280;30314;48.184;11.510;2023-06-22T11:43:36;95738.16;;;31.04;49.48
7662;BME280;30314;48.184;11.510;2023-06-22T11:46:04;95733.81;;;31.07;48.70
7662;BME280;30314;48.184;11.510;2023-06-22T11:48:30;95730.75;;;31.05;48.99
7662;BME280;30314;48.184;11.510;2023-06-22T11:50:57;95733.97;;;31.00;48.25
7662;BME280;30314;48.184;11.510;2023-06-22T11:53:26;95728.59;;;30.96;48.58
7662;BME280;30314;48.184;11.510;2023-06-22T11:55:53;95726.13;;;30.85;47.11
7662;BME280;30314;48.184;11.510;2023-06-22T11:58:21;95736.50;;;30.90;47.83
7662;BME280;30314;48.184;11.510;2023-06-22T12:00:48;95726.66;;;30.97;47.47
7662;BME280;30314;48.184;11.510;2023-06-22T12:03:18;95726.47;;;31.04;47.24
7662;BME280;30314;48.184;11.510;2023-06-22T12:05:45;95715.56;;;31.20;47.28
7662;BME280;30314;48.184;11.510;2023-06-22T12:08:12;95717.63;;;31.16;47.17
7662;BME280;30314;48.184;11.510;2023-06-22T12:10:40;95708.84;;;31.08;46.99
7662;BME280;30314;48.184;11.510;2023-06-22T12:13:06;95708.19;;;31.04;47.58
7662;BME280;30314;48.184;11.510;2023-06-22T12:15:33;95701.25;;;31.00;47.99
7662;BME280;30314;48.184;11.510;2023-06-22T12:18:00;95702.63;;;31.08;47.47
7662;BME280;30314;48.184;11.510;2023-06-22T12:20:28;95690.88;;;31.11;47.57
7662;BME280;30314;48.184;11.510;2023-06-22T12:22:55;95693.25;;;31.09;48.71
7662;BME280;30314;48.184;11.510;2023-06-22T12:25:25;95690.88;;;31.11;47.15
7662;BME280;30314;48.184;11.510;2023-06-22T12:27:52;95688.66;;;31.06;47.58
7662;BME280;30314;48.184;11.510;2023-06-22T12:30:18;95687.63;;;31.00;47.60
7662;BME280;30314;48.184;11.510;2023-06-22T12:32:45;95679.94;;;30.94;47.39
7662;BME280;30314;48.184;11.510;2023-06-22T12:35:12;95684.56;;;30.98;48.15
7662;BME280;30314;48.184;11.510;2023-06-22T12:37:43;95683.91;;;31.10;47.01
7662;BME280;30314;48.184;11.510;2023-06-22T12:40:10;95658.06;;;30.98;48.11
7662;BME280;30314;48.184;11.510;2023-06-22T12:42:37;95680.13;;;31.20;47.46
7662;BME280;30314;48.184;11.510;2023-06-22T12:45:04;95675.78;;;31.23;47.26
7662;BME280;30314;48.184;11.510;2023-06-22T12:47:31;95668.22;;;31.14;47.01
7662;BME280;30314;48.184;11.510;2023-06-22T12:49:57;95659.00;;;31.08;47.32
7662;BME280;30314;48.184;11.510;2023-06-22T12:52:24;95652.19;;;31.00;48.28
7662;BME280;30314;48.184;11.510;2023-06-22T12:54:51;95661.63;;;31.12;47.15
7662;BME280;30314;48.184;11.510;2023-06-22T12:57:21;95648.78;;;31.12;46.65
7662;BME280;30314;48.184;11.510;2023-06-22T12:59:48;95660.78;;;31.15;48.34
7662;BME280;30314;48.184;11.510;2023-06-22T13:02:15;95655.25;;;31.18;48.11
7662;BME280;30314;48.184;11.510;2023-06-22T13:04:41;95658.31;;;31.20;48.09
7662;BME280;30314;48.184;11.510;2023-06-22T13:07:09;95649.03;;;31.18;49.18